sensor_id;sensor_type;location;lat;lon;timestamp;temperature;humidity
3348;DHT22;1687;49.540;8.574;2023-09-19T00:00:30;19.40;92.60
3348;DHT22;1687;49.540;8.574;2023-09-19T00:02:57;19.40;92.50
3348;DHT22;1687;49.540;8.574;2023-09-19T00:05:27;19.30;92.60
3348;DHT22;1687;49.540;8.574;2023-09-19T00:07:55;19.30;92.60
3348;DHT22;1687;49.540;8.574;2023-09-19T00:10:25;19.30;92.50
3348;DHT22;1687;49.540;8.574;2023-09-19T00:12:55;19.20;92.50
3348;DHT22;1687;49.540;8.574;2023-09-19T00:15:21;19.20;92.60
3348;DHT22;1687;49.540;8.574;2023-09-19T00:17:48;19.10;92.60
3348;DHT22;1687;49.540;8.574;2023-09-19T00:20:14;19.00;92.70
3348;DHT22;1687;49.540;8.574;2023-09-19T00:22:42;19.00;92.90
3348;DHT22;1687;49.540;8.574;2023-09-19T00:25:08;19.10;93.00
3348;DHT22;1687;49.540;8.574;2023-09-19T00:27:40;19.10;93.10
3348;DHT22;1687;49.540;8.574;2023-09-19T00:30:09;19.10;93.00
3348;DHT22;1687;49.540;8.574;2023-09-19T00:32:42;19.20;93.20
3348;DHT22;1687;49.540;8.574;2023-09-19T00:35:08;19.20;92.90
3348;DHT22;1687;49.540;8.574;2023-09-19T00:37:37;19.20;93.00
3348;DHT22;1687;49.540;8.574;2023-09-19T00:40:06;19.10;93.00
3348;DHT22;1687;49.540;8.574;2023-09-19T00:42:35;19.10;93.20
3348;DHT22;1687;49.540;8.574;2023-09-19T00:45:04;19.00;93.20
3348;DHT22;1687;49.540;8.574;2023-09-19T00:47:31;19.00;93.20
3348;DHT22;1687;49.540;8.574;2023-09-19T00:49:57;19.00;93.20
3348;DHT22;1687;49.540;8.574;2023-09-19T00:52:23;19.00;93.30
3348;DHT22;1687;49.540;8.574;2023-09-19T00:54:49;19.00;93.20
3348;DHT22;1687;49.540;8.574;2023-09-19T00:57:15;19.00;93.30
3348;DHT22;1687;49.540;8.574;2023-09-19T00:59:45;19.00;93.30
3348;DHT22;1687;49.540;8.574;2023-09-19T01:02:14;18.90;93.30
3348;DHT22;1687;49.540;8.574;2023-09-19T01:04:40;18.90;93.60
3348;DHT22;1687;49.540;8.574;2023-09-19T01:07:07;19.00;93.80
3348;DHT22;1687;49.540;8.574;2023-09-19T01:09:34;18.90;93.40
3348;DHT22;1687;49.540;8.574;2023-09-19T01:12:02;19.00;93.80
3348;DHT22;1687;49.540;8.574;2023-09-19T01:14:42;19.00;93.70
3348;DHT22;1687;49.540;8.574;2023-09-19T01:20:00;19.00;93.80
3348;DHT22;1687;49.540;8.574;2023-09-19T01:23:13;19.00;93.90
3348;DHT22;1687;49.540;8.574;2023-09-19T01:26:30;18.90;93.70
3348;DHT22;1687;49.540;8.574;2023-09-19T01:29:26;19.00;94.10
3348;DHT22;1687;49.540;8.574;2023-09-19T01:32:05;19.00;94.10
3348;DHT22;1687;49.540;8.574;2023-09-19T01:34:51;19.00;94.20
3348;DHT22;1687;49.540;8.574;2023-09-19T01:37:23;19.10;94.10
3348;DHT22;1687;49.540;8.574;2023-09-19T01:39:58;19.10;94.30
3348;DHT22;1687;49.540;8.574;2023-09-19T01:54:46;19.20;94.50
3348;DHT22;1687;49.540;8.574;2023-09-19T01:57:30;19.20;94.80
3348;DHT22;1687;49.540;8.574;2023-09-19T02:00:03;19.20;94.80
3348;DHT22;1687;49.540;8.574;2023-09-19T02:02:37;19.20;94.80
3348;DHT22;1687;49.540;8.574;2023-09-19T02:05:04;19.20;94.70
3348;DHT22;1687;49.540;8.574;2023-09-19T02:07:30;19.20;94.70
3348;DHT22;1687;49.540;8.574;2023-09-19T02:09:59;19.20;95.00
3348;DHT22;1687;49.540;8.574;2023-09-19T02:12:31;19.20;94.90
3348;DHT22;1687;49.540;8.574;2023-09-19T02:14:58;19.20;95.30
3348;DHT22;1687;49.540;8.574;2023-09-19T02:17:25;19.20;95.10
3348;DHT22;1687;49.540;8.574;2023-09-19T02:19:55;19.20;95.10
3348;DHT22;1687;49.540;8.574;2023-09-19T02:22:21;19.20;95.10
3348;DHT22;1687;49.540;8.574;2023-09-19T02:24:48;19.20;94.90
3348;DHT22;1687;49.540;8.574;2023-09-19T02:27:14;19.20;95.30
3348;DHT22;1687;49.540;8.574;2023-09-19T02:29:41;19.20;95.50
3348;DHT22;1687;49.540;8.574;2023-09-19T02:32:07;19.20;95.50
3348;DHT22;1687;49.540;8.574;2023-09-19T02:34:35;19.30;95.60
3348;DHT22;1687;49.540;8.574;2023-09-19T02:37:04;19.30;95.60
3348;DHT22;1687;49.540;8.574;2023-09-19T02:39:31;19.30;95.40
3348;DHT22;1687;49.540;8.574;2023-09-19T02:41:57;19.30;95.60
3348;DHT22;1687;49.540;8.574;2023-09-19T02:44:23;19.30;95.50
3348;DHT22;1687;49.540;8.574;2023-09-19T02:46:49;19.40;95.80
3348;DHT22;1687;49.540;8.574;2023-09-19T02:49:16;19.40;95.70
3348;DHT22;1687;49.540;8.574;2023-09-19T02:51:43;19.40;95.50
3348;DHT22;1687;49.540;8.574;2023-09-19T02:54:09;19.40;95.80
3348;DHT22;1687;49.540;8.574;2023-09-19T02:56:35;19.40;95.80
3348;DHT22;1687;49.540;8.574;2023-09-19T02:59:02;19.40;95.70
3348;DHT22;1687;49.540;8.574;2023-09-19T03:01:28;19.40;95.80
3348;DHT22;1687;49.540;8.574;2023-09-19T03:03:54;19.50;95.80
3348;DHT22;1687;49.540;8.574;2023-09-19T03:06:20;19.50;95.60
3348;DHT22;1687;49.540;8.574;2023-09-19T03:08:47;19.50;95.70
3348;DHT22;1687;49.540;8.574;2023-09-19T03:11:14;19.40;95.70
3348;DHT22;1687;49.540;8.574;2023-09-19T03:13:41;19.40;95.70
3348;DHT22;1687;49.540;8.574;2023-09-19T03:16:08;19.40;95.80
3348;DHT22;1687;49.540;8.574;2023-09-19T03:18:34;19.40;95.80
3348;DHT22;1687;49.540;8.574;2023-09-19T03:21:00;19.50;95.90
3348;DHT22;1687;49.540;8.574;2023-09-19T03:23:27;19.40;95.70
3348;DHT22;1687;49.540;8.574;2023-09-19T03:25:54;19.40;95.70
3348;DHT22;1687;49.540;8.574;2023-09-19T03:28:21;19.40;95.70
3348;DHT22;1687;49.540;8.574;2023-09-19T03:31:05;19.20;95.60
3348;DHT22;1687;49.540;8.574;2023-09-19T03:33:32;19.20;95.90
3348;DHT22;1687;49.540;8.574;2023-09-19T03:36:00;19.10;95.70
3348;DHT22;1687;49.540;8.574;2023-09-19T03:38:26;19.10;95.60
3348;DHT22;1687;49.540;8.574;2023-09-19T03:40:54;19.00;95.60
3348;DHT22;1687;49.540;8.574;2023-09-19T03:43:19;19.00;95.80
3348;DHT22;1687;49.540;8.574;2023-09-19T03:45:45;19.00;95.60
3348;DHT22;1687;49.540;8.574;2023-09-19T03:48:12;18.90;95.80
3348;DHT22;1687;49.540;8.574;2023-09-19T03:50:38;18.90;96.00
3348;DHT22;1687;49.540;8.574;2023-09-19T03:53:04;18.90;95.90
3348;DHT22;1687;49.540;8.574;2023-09-19T03:55:32;18.90;95.90
3348;DHT22;1687;49.540;8.574;2023-09-19T03:58:01;18.90;96.30
3348;DHT22;1687;49.540;8.574;2023-09-19T04:00:27;18.80;95.70
3348;DHT22;1687;49.540;8.574;2023-09-19T04:02:54;18.80;95.80
3348;DHT22;1687;49.540;8.574;2023-09-19T04:05:22;18.70;95.60
3348;DHT22;1687;49.540;8.574;2023-09-19T04:07:48;18.60;96.20
3348;DHT22;1687;49.540;8.574;2023-09-19T04:10:14;18.60;95.80
3348;DHT22;1687;49.540;8.574;2023-09-19T04:12:40;18.60;95.90
3348;DHT22;1687;49.540;8.574;2023-09-19T04:15:06;18.60;96.00
3348;DHT22;1687;49.540;8.574;2023-09-19T04:17:33;18.60;96.10
3348;DHT22;1687;49.540;8.574;2023-09-19T04:19:59;18.60;96.00
3348;DHT22;1687;49.540;8.574;2023-09-19T04:22:25;18.60;95.90
3348;DHT22;1687;49.540;8.574;2023-09-19T04:24:51;18.60;95.90
3348;DHT22;1687;49.540;8.574;2023-09-19T04:27:16;18.60;95.90
3348;DHT22;1687;49.540;8.574;2023-09-19T04:29:44;18.60;95.80
3348;DHT22;1687;49.540;8.574;2023-09-19T04:32:09;18.60;95.90
3348;DHT22;1687;49.540;8.574;2023-09-19T04:34:36;18.60;95.80
3348;DHT22;1687;49.540;8.574;2023-09-19T04:37:03;18.50;95.60
3348;DHT22;1687;49.540;8.574;2023-09-19T04:39:29;18.50;95.80
3348;DHT22;1687;49.540;8.574;2023-09-19T04:41:55;18.50;95.80
3348;DHT22;1687;49.540;8.574;2023-09-19T04:44:21;18.50;95.80
3348;DHT22;1687;49.540;8.574;2023-09-19T04:46:46;18.50;95.60
3348;DHT22;1687;49.540;8.574;2023-09-19T04:49:13;18.50;95.90
3348;DHT22;1687;49.540;8.574;2023-09-19T04:51:39;18.40;95.60
3348;DHT22;1687;49.540;8.574;2023-09-19T04:54:06;18.40;95.60
3348;DHT22;1687;49.540;8.574;2023-09-19T04:56:32;18.40;95.80
3348;DHT22;1687;49.540;8.574;2023-09-19T04:58:59;18.30;95.50
3348;DHT22;1687;49.540;8.574;2023-09-19T05:01:25;18.30;95.50
3348;DHT22;1687;49.540;8.574;2023-09-19T05:03:52;18.30;95.70
3348;DHT22;1687;49.540;8.574;2023-09-19T05:06:19;18.30;95.50
3348;DHT22;1687;49.540;8.574;2023-09-19T05:08:46;18.20;95.50
3348;DHT22;1687;49.540;8.574;2023-09-19T05:11:21;18.20;95.50
3348;DHT22;1687;49.540;8.574;2023-09-19T05:13:49;18.10;95.40
3348;DHT22;1687;49.540;8.574;2023-09-19T05:16:18;18.10;95.30
3348;DHT22;1687;49.540;8.574;2023-09-19T05:18:44;18.00;95.40
3348;DHT22;1687;49.540;8.574;2023-09-19T05:21:10;18.00;95.30
3348;DHT22;1687;49.540;8.574;2023-09-19T05:23:36;18.00;95.60
3348;DHT22;1687;49.540;8.574;2023-09-19T05:26:02;18.00;95.40
3348;DHT22;1687;49.540;8.574;2023-09-19T05:28:30;18.00;95.40
3348;DHT22;1687;49.540;8.574;2023-09-19T05:31:00;18.10;95.50
3348;DHT22;1687;49.540;8.574;2023-09-19T05:33:27;18.10;95.60
3348;DHT22;1687;49.540;8.574;2023-09-19T05:35:53;18.10;95.40
3348;DHT22;1687;49.540;8.574;2023-09-19T05:38:19;18.00;95.20
3348;DHT22;1687;49.540;8.574;2023-09-19T05:40:45;18.10;95.30
3348;DHT22;1687;49.540;8.574;2023-09-19T05:43:12;18.10;95.30
3348;DHT22;1687;49.540;8.574;2023-09-19T05:45:40;18.10;95.30
3348;DHT22;1687;49.540;8.574;2023-09-19T05:48:11;18.10;95.30
3348;DHT22;1687;49.540;8.574;2023-09-19T05:50:39;18.10;95.00
3348;DHT22;1687;49.540;8.574;2023-09-19T05:53:05;18.20;95.30
3348;DHT22;1687;49.540;8.574;2023-09-19T05:55:32;18.20;95.30
3348;DHT22;1687;49.540;8.574;2023-09-19T05:57:58;18.30;95.10
3348;DHT22;1687;49.540;8.574;2023-09-19T06:00:25;18.30;95.00
3348;DHT22;1687;49.540;8.574;2023-09-19T06:02:57;18.30;94.80
3348;DHT22;1687;49.540;8.574;2023-09-19T06:05:25;18.30;94.80
3348;DHT22;1687;49.540;8.574;2023-09-19T06:07:53;18.40;94.50
3348;DHT22;1687;49.540;8.574;2023-09-19T06:10:19;18.30;94.60
3348;DHT22;1687;49.540;8.574;2023-09-19T06:12:49;18.30;94.50
3348;DHT22;1687;49.540;8.574;2023-09-19T06:15:15;18.40;94.70
3348;DHT22;1687;49.540;8.574;2023-09-19T06:17:48;18.50;94.60
3348;DHT22;1687;49.540;8.574;2023-09-19T06:20:15;18.50;94.30
3348;DHT22;1687;49.540;8.574;2023-09-19T06:22:42;18.50;94.30
3348;DHT22;1687;49.540;8.574;2023-09-19T06:25:10;18.50;93.90
3348;DHT22;1687;49.540;8.574;2023-09-19T06:27:41;18.50;94.00
3348;DHT22;1687;49.540;8.574;2023-09-19T06:30:08;18.50;94.20
3348;DHT22;1687;49.540;8.574;2023-09-19T06:32:35;18.60;94.20
3348;DHT22;1687;49.540;8.574;2023-09-19T06:35:01;18.70;94.40
3348;DHT22;1687;49.540;8.574;2023-09-19T06:37:28;18.80;94.00
3348;DHT22;1687;49.540;8.574;2023-09-19T06:39:55;18.90;93.90
3348;DHT22;1687;49.540;8.574;2023-09-19T06:42:21;18.90;93.60
3348;DHT22;1687;49.540;8.574;2023-09-19T06:44:48;18.90;94.00
3348;DHT22;1687;49.540;8.574;2023-09-19T06:47:14;19.00;93.70
3348;DHT22;1687;49.540;8.574;2023-09-19T06:49:41;19.00;93.60
3348;DHT22;1687;49.540;8.574;2023-09-19T06:52:09;19.00;93.20
3348;DHT22;1687;49.540;8.574;2023-09-19T06:54:35;19.00;93.40
3348;DHT22;1687;49.540;8.574;2023-09-19T06:57:01;19.10;93.60
3348;DHT22;1687;49.540;8.574;2023-09-19T06:59:27;19.10;93.10
3348;DHT22;1687;49.540;8.574;2023-09-19T07:01:53;19.10;93.00
3348;DHT22;1687;49.540;8.574;2023-09-19T07:04:18;19.10;93.00
3348;DHT22;1687;49.540;8.574;2023-09-19T07:06:50;19.10;93.00
3348;DHT22;1687;49.540;8.574;2023-09-19T07:09:16;19.00;92.60
3348;DHT22;1687;49.540;8.574;2023-09-19T07:11:44;19.10;92.60
3348;DHT22;1687;49.540;8.574;2023-09-19T07:14:10;19.00;92.70
3348;DHT22;1687;49.540;8.574;2023-09-19T07:16:38;19.00;92.60
3348;DHT22;1687;49.540;8.574;2023-09-19T07:19:05;19.00;93.10
3348;DHT22;1687;49.540;8.574;2023-09-19T07:21:31;19.10;92.70
3348;DHT22;1687;49.540;8.574;2023-09-19T07:24:00;19.20;92.90
3348;DHT22;1687;49.540;8.574;2023-09-19T07:26:28;19.20;92.60
3348;DHT22;1687;49.540;8.574;2023-09-19T07:28:54;19.20;92.40
3348;DHT22;1687;49.540;8.574;2023-09-19T07:31:21;19.30;92.30
3348;DHT22;1687;49.540;8.574;2023-09-19T07:33:48;19.20;92.40
3348;DHT22;1687;49.540;8.574;2023-09-19T07:36:14;19.20;92.50
3348;DHT22;1687;49.540;8.574;2023-09-19T07:38:40;19.40;92.90
3348;DHT22;1687;49.540;8.574;2023-09-19T07:41:07;19.50;92.40
3348;DHT22;1687;49.540;8.574;2023-09-19T07:43:37;19.40;92.00
3348;DHT22;1687;49.540;8.574;2023-09-19T07:46:06;19.40;92.00
3348;DHT22;1687;49.540;8.574;2023-09-19T07:48:35;19.50;92.30
3348;DHT22;1687;49.540;8.574;2023-09-19T07:51:05;19.60;92.00
3348;DHT22;1687;49.540;8.574;2023-09-19T07:53:33;19.70;91.80
3348;DHT22;1687;49.540;8.574;2023-09-19T07:56:07;19.70;91.40
3348;DHT22;1687;49.540;8.574;2023-09-19T07:58:35;19.70;91.60
3348;DHT22;1687;49.540;8.574;2023-09-19T08:01:09;19.80;91.00
3348;DHT22;1687;49.540;8.574;2023-09-19T08:03:36;19.80;90.90
3348;DHT22;1687;49.540;8.574;2023-09-19T08:06:09;19.90;90.70
3348;DHT22;1687;49.540;8.574;2023-09-19T08:08:37;20.00;90.90
3348;DHT22;1687;49.540;8.574;2023-09-19T08:11:03;20.10;90.30
3348;DHT22;1687;49.540;8.574;2023-09-19T08:13:37;20.10;89.00
3348;DHT22;1687;49.540;8.574;2023-09-19T08:16:04;20.00;88.80
3348;DHT22;1687;49.540;8.574;2023-09-19T08:18:30;20.00;88.30
3348;DHT22;1687;49.540;8.574;2023-09-19T08:20:58;20.00;87.60
3348;DHT22;1687;49.540;8.574;2023-09-19T08:23:26;20.10;87.00
3348;DHT22;1687;49.540;8.574;2023-09-19T08:25:56;20.00;86.30
3348;DHT22;1687;49.540;8.574;2023-09-19T08:28:22;20.00;85.90
3348;DHT22;1687;49.540;8.574;2023-09-19T08:30:50;19.90;85.30
3348;DHT22;1687;49.540;8.574;2023-09-19T08:33:16;19.90;84.70
3348;DHT22;1687;49.540;8.574;2023-09-19T08:35:42;19.90;84.00
3348;DHT22;1687;49.540;8.574;2023-09-19T08:38:09;19.80;83.70
3348;DHT22;1687;49.540;8.574;2023-09-19T08:40:39;19.80;83.30
3348;DHT22;1687;49.540;8.574;2023-09-19T08:43:07;19.80;83.10
3348;DHT22;1687;49.540;8.574;2023-09-19T08:45:34;19.80;82.60
3348;DHT22;1687;49.540;8.574;2023-09-19T08:48:27;19.90;82.60
3348;DHT22;1687;49.540;8.574;2023-09-19T08:53:41;20.00;82.10
3348;DHT22;1687;49.540;8.574;2023-09-19T08:56:12;20.10;81.90
3348;DHT22;1687;49.540;8.574;2023-09-19T08:58:44;20.20;81.70
3348;DHT22;1687;49.540;8.574;2023-09-19T09:01:18;20.40;81.40
3348;DHT22;1687;49.540;8.574;2023-09-19T09:03:52;20.40;80.70
3348;DHT22;1687;49.540;8.574;2023-09-19T09:06:20;20.60;80.90
3348;DHT22;1687;49.540;8.574;2023-09-19T09:08:46;20.70;80.30
3348;DHT22;1687;49.540;8.574;2023-09-19T09:11:13;20.90;80.00
3348;DHT22;1687;49.540;8.574;2023-09-19T09:13:43;21.00;79.20
3348;DHT22;1687;49.540;8.574;2023-09-19T09:16:10;21.00;79.10
3348;DHT22;1687;49.540;8.574;2023-09-19T09:18:36;21.00;78.00
3348;DHT22;1687;49.540;8.574;2023-09-19T09:21:02;20.90;77.20
3348;DHT22;1687;49.540;8.574;2023-09-19T09:23:30;20.90;77.40
3348;DHT22;1687;49.540;8.574;2023-09-19T09:25:57;20.90;76.50
3348;DHT22;1687;49.540;8.574;2023-09-19T09:28:34;20.80;76.30
3348;DHT22;1687;49.540;8.574;2023-09-19T09:31:01;20.90;76.30
3348;DHT22;1687;49.540;8.574;2023-09-19T09:33:29;21.00;76.00
3348;DHT22;1687;49.540;8.574;2023-09-19T09:35:57;21.10;75.70
3348;DHT22;1687;49.540;8.574;2023-09-19T09:38:28;21.30;75.50
3348;DHT22;1687;49.540;8.574;2023-09-19T09:41:10;21.30;74.50
3348;DHT22;1687;49.540;8.574;2023-09-19T09:43:41;21.30;74.10
3348;DHT22;1687;49.540;8.574;2023-09-19T09:48:58;21.20;72.80
3348;DHT22;1687;49.540;8.574;2023-09-19T09:52:06;21.10;72.70
3348;DHT22;1687;49.540;8.574;2023-09-19T09:54:58;21.20;72.50
3348;DHT22;1687;49.540;8.574;2023-09-19T09:57:26;21.00;71.50
3348;DHT22;1687;49.540;8.574;2023-09-19T09:59:59;20.90;71.20
3348;DHT22;1687;49.540;8.574;2023-09-19T10:02:42;20.90;71.10
3348;DHT22;1687;49.540;8.574;2023-09-19T10:05:16;20.90;71.10
3348;DHT22;1687;49.540;8.574;2023-09-19T10:07:49;21.00;71.40
3348;DHT22;1687;49.540;8.574;2023-09-19T10:10:37;21.20;70.80
3348;DHT22;1687;49.540;8.574;2023-09-19T10:13:25;21.20;70.20
3348;DHT22;1687;49.540;8.574;2023-09-19T10:15:55;21.30;70.30
3348;DHT22;1687;49.540;8.574;2023-09-19T10:18:23;21.40;70.20
3348;DHT22;1687;49.540;8.574;2023-09-19T10:20:50;21.40;69.80
3348;DHT22;1687;49.540;8.574;2023-09-19T10:23:18;21.50;69.60
3348;DHT22;1687;49.540;8.574;2023-09-19T10:25:49;21.50;69.60
3348;DHT22;1687;49.540;8.574;2023-09-19T10:28:17;21.50;69.50
3348;DHT22;1687;49.540;8.574;2023-09-19T10:30:49;21.60;69.20
3348;DHT22;1687;49.540;8.574;2023-09-19T10:33:18;21.70;69.50
3348;DHT22;1687;49.540;8.574;2023-09-19T10:35:49;21.90;69.50
3348;DHT22;1687;49.540;8.574;2023-09-19T10:38:23;22.10;69.20
3348;DHT22;1687;49.540;8.574;2023-09-19T10:40:52;22.20;68.90
3348;DHT22;1687;49.540;8.574;2023-09-19T10:43:21;22.20;68.60
3348;DHT22;1687;49.540;8.574;2023-09-19T10:45:49;22.30;68.50
3348;DHT22;1687;49.540;8.574;2023-09-19T10:48:17;22.30;68.30
3348;DHT22;1687;49.540;8.574;2023-09-19T10:50:50;22.40;68.30
3348;DHT22;1687;49.540;8.574;2023-09-19T10:53:17;22.40;67.80
3348;DHT22;1687;49.540;8.574;2023-09-19T10:55:55;22.50;67.80
3348;DHT22;1687;49.540;8.574;2023-09-19T10:58:29;22.60;67.50
3348;DHT22;1687;49.540;8.574;2023-09-19T11:01:00;22.60;67.60
3348;DHT22;1687;49.540;8.574;2023-09-19T11:03:38;22.60;66.90
3348;DHT22;1687;49.540;8.574;2023-09-19T11:06:15;22.70;67.10
3348;DHT22;1687;49.540;8.574;2023-09-19T11:11:49;22.70;66.70
3348;DHT22;1687;49.540;8.574;2023-09-19T11:30:40;22.50;64.90
3348;DHT22;1687;49.540;8.574;2023-09-19T11:33:16;22.50;65.10
3348;DHT22;1687;49.540;8.574;2023-09-19T11:43:52;22.70;64.30
3348;DHT22;1687;49.540;8.574;2023-09-19T11:46:26;22.80;64.40
3348;DHT22;1687;49.540;8.574;2023-09-19T11:48:53;22.90;64.10
3348;DHT22;1687;49.540;8.574;2023-09-19T11:51:26;22.90;63.80
3348;DHT22;1687;49.540;8.574;2023-09-19T11:53:58;22.90;63.50
3348;DHT22;1687;49.540;8.574;2023-09-19T11:56:27;22.90;63.30
3348;DHT22;1687;49.540;8.574;2023-09-19T11:58:56;22.80;63.00
3348;DHT22;1687;49.540;8.574;2023-09-19T12:03:57;23.00;63.40
3348;DHT22;1687;49.540;8.574;2023-09-19T12:06:25;23.10;63.00
3348;DHT22;1687;49.540;8.574;2023-09-19T12:08:52;23.10;63.10
3348;DHT22;1687;49.540;8.574;2023-09-19T12:11:23;23.20;63.00
3348;DHT22;1687;49.540;8.574;2023-09-19T12:13:49;23.10;62.40
3348;DHT22;1687;49.540;8.574;2023-09-19T12:16:20;23.10;62.50
3348;DHT22;1687;49.540;8.574;2023-09-19T12:18:50;23.20;62.40
3348;DHT22;1687;49.540;8.574;2023-09-19T12:21:32;23.30;62.40
3348;DHT22;1687;49.540;8.574;2023-09-19T12:24:04;23.40;62.30
3348;DHT22;1687;49.540;8.574;2023-09-19T12:26:44;23.50;61.90
3348;DHT22;1687;49.540;8.574;2023-09-19T12:29:20;23.60;62.80
3348;DHT22;1687;49.540;8.574;2023-09-19T12:31:51;23.70;61.40
3348;DHT22;1687;49.540;8.574;2023-09-19T12:34:27;23.70;61.40
3348;DHT22;1687;49.540;8.574;2023-09-19T12:37:13;23.60;60.80
3348;DHT22;1687;49.540;8.574;2023-09-19T12:39:48;23.40;60.30
3348;DHT22;1687;49.540;8.574;2023-09-19T12:42:18;23.40;60.70
3348;DHT22;1687;49.540;8.574;2023-09-19T12:44:48;23.50;60.60
3348;DHT22;1687;49.540;8.574;2023-09-19T12:47:18;23.50;60.20
3348;DHT22;1687;49.540;8.574;2023-09-19T12:52:50;23.40;59.80
3348;DHT22;1687;49.540;8.574;2023-09-19T12:58:08;23.40;59.70
3348;DHT22;1687;49.540;8.574;2023-09-19T13:00:39;23.40;59.50
3348;DHT22;1687;49.540;8.574;2023-09-19T13:03:29;23.40;59.70
3348;DHT22;1687;49.540;8.574;2023-09-19T13:06:02;23.50;59.60
3348;DHT22;1687;49.540;8.574;2023-09-19T13:08:35;23.60;59.50
3348;DHT22;1687;49.540;8.574;2023-09-19T13:11:17;23.70;59.40
3348;DHT22;1687;49.540;8.574;2023-09-19T13:13:49;23.80;59.20
3348;DHT22;1687;49.540;8.574;2023-09-19T13:17:02;23.80;59.20
3348;DHT22;1687;49.540;8.574;2023-09-19T13:25:10;24.00;58.80
3348;DHT22;1687;49.540;8.574;2023-09-19T13:27:51;24.10;59.10
3348;DHT22;1687;49.540;8.574;2023-09-19T13:30:25;24.40;59.20
3348;DHT22;1687;49.540;8.574;2023-09-19T13:33:03;24.60;59.00
3348;DHT22;1687;49.540;8.574;2023-09-19T13:35:31;24.60;58.60
3348;DHT22;1687;49.540;8.574;2023-09-19T13:37:58;24.70;58.80
3348;DHT22;1687;49.540;8.574;2023-09-19T13:40:24;24.80;58.70
3348;DHT22;1687;49.540;8.574;2023-09-19T13:43:00;24.80;58.10
3348;DHT22;1687;49.540;8.574;2023-09-19T13:45:26;24.90;58.60
3348;DHT22;1687;49.540;8.574;2023-09-19T13:47:52;25.10;58.60
3348;DHT22;1687;49.540;8.574;2023-09-19T13:50:19;25.20;58.20
3348;DHT22;1687;49.540;8.574;2023-09-19T13:52:49;25.20;58.10
3348;DHT22;1687;49.540;8.574;2023-09-19T13:55:17;25.30;58.20
3348;DHT22;1687;49.540;8.574;2023-09-19T13:57:49;25.40;58.20
3348;DHT22;1687;49.540;8.574;2023-09-19T14:00:20;25.50;58.10
3348;DHT22;1687;49.540;8.574;2023-09-19T14:02:46;25.60;57.90
3348;DHT22;1687;49.540;8.574;2023-09-19T14:05:14;25.70;57.90
3348;DHT22;1687;49.540;8.574;2023-09-19T14:07:42;25.60;57.50
3348;DHT22;1687;49.540;8.574;2023-09-19T14:10:09;25.60;57.30
3348;DHT22;1687;49.540;8.574;2023-09-19T14:12:36;25.40;57.30
3348;DHT22;1687;49.540;8.574;2023-09-19T14:15:03;25.60;57.60
3348;DHT22;1687;49.540;8.574;2023-09-19T14:17:30;25.80;57.50
3348;DHT22;1687;49.540;8.574;2023-09-19T14:19:55;26.00;57.40
3348;DHT22;1687;49.540;8.574;2023-09-19T14:22:21;26.00;57.00
3348;DHT22;1687;49.540;8.574;2023-09-19T14:24:47;26.20;57.20
3348;DHT22;1687;49.540;8.574;2023-09-19T14:27:13;26.70;56.90
3348;DHT22;1687;49.540;8.574;2023-09-19T14:29:39;26.50;56.40
3348;DHT22;1687;49.540;8.574;2023-09-19T14:32:05;26.00;56.00
3348;DHT22;1687;49.540;8.574;2023-09-19T14:34:31;25.80;56.50
3348;DHT22;1687;49.540;8.574;2023-09-19T14:36:57;26.20;56.50
3348;DHT22;1687;49.540;8.574;2023-09-19T14:39:22;26.30;56.40
3348;DHT22;1687;49.540;8.574;2023-09-19T14:41:49;26.80;56.30
3348;DHT22;1687;49.540;8.574;2023-09-19T14:44:14;27.30;56.10
3348;DHT22;1687;49.540;8.574;2023-09-19T14:46:43;27.00;55.30
3348;DHT22;1687;49.540;8.574;2023-09-19T14:49:10;26.40;55.10
3348;DHT22;1687;49.540;8.574;2023-09-19T14:51:37;26.10;55.50
3348;DHT22;1687;49.540;8.574;2023-09-19T14:54:05;26.00;55.70
3348;DHT22;1687;49.540;8.574;2023-09-19T14:56:33;26.20;55.90
3348;DHT22;1687;49.540;8.574;2023-09-19T14:58:58;26.30;55.40
3348;DHT22;1687;49.540;8.574;2023-09-19T15:01:24;26.40;55.50
3348;DHT22;1687;49.540;8.574;2023-09-19T15:03:50;26.50;55.60
3348;DHT22;1687;49.540;8.574;2023-09-19T15:06:16;26.30;55.00
3348;DHT22;1687;49.540;8.574;2023-09-19T15:08:46;26.00;55.20
3348;DHT22;1687;49.540;8.574;2023-09-19T15:11:16;25.90;55.40
3348;DHT22;1687;49.540;8.574;2023-09-19T15:13:44;25.70;55.10
3348;DHT22;1687;49.540;8.574;2023-09-19T15:16:10;25.70;55.40
3348;DHT22;1687;49.540;8.574;2023-09-19T15:18:39;26.50;56.00
3348;DHT22;1687;49.540;8.574;2023-09-19T15:21:07;26.90;55.00
3348;DHT22;1687;49.540;8.574;2023-09-19T15:23:35;27.70;55.70
3348;DHT22;1687;49.540;8.574;2023-09-19T15:26:05;27.80;54.80
3348;DHT22;1687;49.540;8.574;2023-09-19T15:28:32;28.80;54.90
3348;DHT22;1687;49.540;8.574;2023-09-19T15:31:03;29.60;54.20
3348;DHT22;1687;49.540;8.574;2023-09-19T15:33:30;29.00;53.60
3348;DHT22;1687;49.540;8.574;2023-09-19T15:36:07;28.50;53.60
3348;DHT22;1687;49.540;8.574;2023-09-19T15:38:57;28.30;53.30
3348;DHT22;1687;49.540;8.574;2023-09-19T15:41:31;28.30;53.50
3348;DHT22;1687;49.540;8.574;2023-09-19T15:44:03;28.00;53.20
3348;DHT22;1687;49.540;8.574;2023-09-19T15:46:33;28.40;53.50
3348;DHT22;1687;49.540;8.574;2023-09-19T15:49:00;29.00;53.40
3348;DHT22;1687;49.540;8.574;2023-09-19T15:51:27;28.80;52.90
3348;DHT22;1687;49.540;8.574;2023-09-19T15:53:54;28.30;52.50
3348;DHT22;1687;49.540;8.574;2023-09-19T15:56:22;27.50;52.40
3348;DHT22;1687;49.540;8.574;2023-09-19T15:58:53;26.90;52.60
3348;DHT22;1687;49.540;8.574;2023-09-19T16:01:19;26.50;53.30
3348;DHT22;1687;49.540;8.574;2023-09-19T16:03:51;26.10;52.90
3348;DHT22;1687;49.540;8.574;2023-09-19T16:06:20;25.80;53.60
3348;DHT22;1687;49.540;8.574;2023-09-19T16:08:50;25.60;53.70
3348;DHT22;1687;49.540;8.574;2023-09-19T16:11:18;25.20;53.70
3348;DHT22;1687;49.540;8.574;2023-09-19T16:13:47;25.00;54.00
3348;DHT22;1687;49.540;8.574;2023-09-19T16:16:14;24.70;54.00
3348;DHT22;1687;49.540;8.574;2023-09-19T16:18:52;24.50;54.30
3348;DHT22;1687;49.540;8.574;2023-09-19T16:21:23;24.30;54.60
3348;DHT22;1687;49.540;8.574;2023-09-19T16:23:50;24.20;54.90
3348;DHT22;1687;49.540;8.574;2023-09-19T16:26:17;24.10;55.00
3348;DHT22;1687;49.540;8.574;2023-09-19T16:28:46;24.00;55.30
3348;DHT22;1687;49.540;8.574;2023-09-19T16:31:12;23.90;55.40
3348;DHT22;1687;49.540;8.574;2023-09-19T16:33:40;23.90;55.60
3348;DHT22;1687;49.540;8.574;2023-09-19T16:36:32;24.00;55.90
3348;DHT22;1687;49.540;8.574;2023-09-19T16:38:59;23.90;55.60
3348;DHT22;1687;49.540;8.574;2023-09-19T16:41:25;23.80;55.80
3348;DHT22;1687;49.540;8.574;2023-09-19T16:43:51;23.70;55.90
3348;DHT22;1687;49.540;8.574;2023-09-19T16:46:17;23.60;56.20
3348;DHT22;1687;49.540;8.574;2023-09-19T16:48:44;23.50;56.20
3348;DHT22;1687;49.540;8.574;2023-09-19T16:51:12;23.40;56.30
3348;DHT22;1687;49.540;8.574;2023-09-19T16:53:40;23.40;56.50
3348;DHT22;1687;49.540;8.574;2023-09-19T16:56:15;23.30;56.50
3348;DHT22;1687;49.540;8.574;2023-09-19T16:58:47;23.10;56.50
3348;DHT22;1687;49.540;8.574;2023-09-19T17:01:15;23.10;56.90
3348;DHT22;1687;49.540;8.574;2023-09-19T17:03:44;23.00;56.80
3348;DHT22;1687;49.540;8.574;2023-09-19T17:06:11;23.00;57.10
3348;DHT22;1687;49.540;8.574;2023-09-19T17:08:40;22.90;57.00
3348;DHT22;1687;49.540;8.574;2023-09-19T17:11:08;22.90;57.30
3348;DHT22;1687;49.540;8.574;2023-09-19T17:13:36;22.80;57.10
3348;DHT22;1687;49.540;8.574;2023-09-19T17:16:05;22.80;57.50
3348;DHT22;1687;49.540;8.574;2023-09-19T17:18:34;22.70;57.50